Time;durP1;ratioP1;P1;durP2;ratioP2;P2;SDS_P1;SDS_P2;PMS_P1;PMS_P2;Temp;Humidity;BMP_temperature;BMP_pressure;BME280_temperature;BME280_humidity;BME280_pressure;Samples;Min_cycle;Max_cycle;Signal;HPM_P1;HPM_P2
2021/04/06 00:00:13;;;;;;;18.45;9.48;;;-3275.90;93.10;;;;;;4982838;28;20038;-69
2021/04/06 00:02:42;;;;;;;18.80;9.23;;;-3275.80;93.10;;;;;;4978626;28;20026;-70
2021/04/06 00:05:09;;;;;;;16.60;8.88;;;-3275.80;93.20;;;;;;4985608;28;20030;-69
2021/04/06 00:07:37;;;;;;;16.75;9.10;;;-3275.80;93.20;;;;;;4987152;28;20406;-68
2021/04/06 00:10:08;;;;;;;15.43;8.02;;;-3275.80;93.20;;;;;;4976943;28;20038;-69
2021/04/06 00:12:36;;;;;;;15.15;8.73;;;-3275.70;93.30;;;;;;4985271;28;20030;-68
2021/04/06 00:15:04;;;;;;;21.52;9.85;;;-3275.60;93.30;;;;;;4987380;28;20085;-69
2021/04/06 00:17:31;;;;;;;20.92;8.77;;;-3275.60;93.40;;;;;;4980709;28;20517;-69
2021/04/06 00:19:59;;;;;;;21.42;10.10;;;-3275.60;93.60;;;;;;4976313;28;20557;-70
2021/04/06 00:22:27;;;;;;;20.90;9.20;;;-3275.50;93.60;;;;;;4983298;28;20037;-69
2021/04/06 00:24:54;;;;;;;17.25;8.90;;;-3275.40;93.70;;;;;;4979191;28;20034;-70
2021/04/06 00:27:33;;;;;;;20.30;8.15;;;-3275.40;93.90;;;;;;4982971;28;20039;-69
2021/04/06 00:30:05;;;;;;;15.85;7.78;;;-3275.30;94.00;;;;;;4975521;28;20040;-69
2021/04/06 00:32:31;;;;;;;15.40;7.68;;;-3275.40;94.10;;;;;;4983729;28;20080;-70
2021/04/06 00:35:01;;;;;;;14.52;7.28;;;-3275.30;94.10;;;;;;4977749;28;20057;-69
2021/04/06 00:37:27;;;;;;;15.82;6.95;;;-3275.40;94.20;;;;;;4982282;28;20030;-70
2021/04/06 00:40:00;;;;;;;12.60;6.28;;;-3275.40;94.30;;;;;;4983536;28;20030;-70
2021/04/06 00:42:28;;;;;;;13.90;7.13;;;-3275.40;94.20;;;;;;4983938;28;20100;-70
2021/04/06 00:45:03;;;;;;;15.20;6.78;;;-3275.30;94.20;;;;;;4982058;28;20034;-70
2021/04/06 00:47:30;;;;;;;17.40;6.90;;;-3275.30;94.20;;;;;;4978417;28;20043;-70
2021/04/06 00:50:08;;;;;;;20.10;7.35;;;-3275.30;94.30;;;;;;4980231;28;20121;-70
2021/04/06 00:52:33;;;;;;;15.60;6.50;;;-3275.30;94.40;;;;;;4983612;28;20323;-68
2021/04/06 00:55:01;;;;;;;14.70;6.43;;;-3275.30;94.40;;;;;;4983619;28;20068;-69
2021/04/06 00:57:28;;;;;;;26.17;6.85;;;-3275.30;94.50;;;;;;4977606;28;20061;-69
2021/04/06 01:00:20;;;;;;;12.38;5.75;;;-3275.20;94.40;;;;;;4984023;28;20088;-69
2021/04/06 01:03:13;;;;;;;13.98;5.50;;;-3275.20;94.40;;;;;;4985800;28;20491;-67
2021/04/06 01:06:01;;;;;;;9.27;4.45;;;-3275.20;94.60;;;;;;4986519;28;20105;-70
2021/04/06 01:08:32;;;;;;;14.02;4.20;;;-3275.20;94.70;;;;;;4998355;28;20042;-69
2021/04/06 01:11:00;;;;;;;12.32;4.03;;;-3275.30;94.70;;;;;;4981262;28;20045;-69
2021/04/06 01:13:26;;;;;;;8.18;3.80;;;-3275.20;94.70;;;;;;4987113;28;20042;-70
2021/04/06 01:15:53;;;;;;;18.30;5.15;;;-3275.20;94.80;;;;;;4986174;28;20038;-69
2021/04/06 01:18:20;;;;;;;12.38;4.15;;;-3275.20;94.90;;;;;;4985960;28;20034;-69
2021/04/06 01:20:46;;;;;;;9.73;4.22;;;-3275.30;95.00;;;;;;4985620;28;20057;-69
2021/04/06 01:23:15;;;;;;;14.05;4.28;;;-3275.20;94.90;;;;;;4986193;28;20505;-70
2021/04/06 01:25:56;;;;;;;8.25;3.67;;;-3275.30;94.90;;;;;;4985562;28;20444;-70
2021/04/06 01:28:27;;;;;;;16.33;4.80;;;-3275.30;94.90;;;;;;4982071;28;20045;-69
2021/04/06 01:30:53;;;;;;;8.27;3.72;;;-3275.30;94.90;;;;;;4986535;28;20742;-69
2021/04/06 01:33:22;;;;;;;12.48;3.90;;;-3275.30;94.80;;;;;;4986143;28;20081;-71
2021/04/06 01:35:49;;;;;;;7.70;3.70;;;-3275.40;94.70;;;;;;4983714;28;20097;-69
2021/04/06 01:38:16;;;;;;;8.05;4.07;;;-3275.40;94.70;;;;;;4986997;28;20030;-69
2021/04/06 01:40:43;;;;;;;10.88;3.72;;;-3275.50;94.70;;;;;;4986750;28;20033;-69
2021/04/06 01:43:11;;;;;;;12.18;4.32;;;-3275.40;94.60;;;;;;4985653;28;20373;-69
2021/04/06 01:45:45;;;;;;;9.80;3.97;;;-3275.40;94.60;;;;;;4981743;28;20027;-69
2021/04/06 01:48:15;;;;;;;8.32;3.92;;;-3275.40;94.60;;;;;;4987270;28;20761;-69
2021/04/06 01:50:43;;;;;;;15.30;3.90;;;-3275.30;94.70;;;;;;4985633;28;20044;-70
2021/04/06 01:53:09;;;;;;;9.65;4.38;;;-3275.30;94.60;;;;;;4981525;28;20073;-69
2021/04/06 01:55:37;;;;;;;7.35;4.07;;;-3275.20;94.70;;;;;;4983798;28;20482;-67
2021/04/06 01:58:04;;;;;;;10.00;3.72;;;-3275.20;94.70;;;;;;4985947;28;20093;-69
2021/04/06 02:03:06;;;;;;;7.88;4.07;;;-3275.10;94.80;;;;;;4978406;28;20027;-69
2021/04/06 02:05:32;;;;;;;9.65;3.55;;;-3275.10;94.90;;;;;;4985820;28;20027;-69
2021/04/06 02:08:02;;;;;;;13.65;4.50;;;-3275.10;94.90;;;;;;4986869;28;20085;-69
2021/04/06 02:10:28;;;;;;;11.25;4.68;;;-3275.10;94.90;;;;;;4985665;28;20033;-69
2021/04/06 02:12:54;;;;;;;11.00;3.60;;;-3275.10;94.90;;;;;;4980428;28;20043;-69
2021/04/06 02:15:20;;;;;;;12.57;4.03;;;-3275.10;94.90;;;;;;4980175;28;20026;-70
2021/04/06 02:17:49;;;;;;;10.45;3.85;;;-3275.10;95.00;;;;;;4986002;28;20053;-69
2021/04/06 02:20:27;;;;;;;9.23;3.70;;;-3275.10;95.10;;;;;;4989109;28;20089;-69
2021/04/06 02:22:56;;;;;;;8.50;3.83;;;-3275.30;95.10;;;;;;4990726;28;20051;-69
2021/04/06 02:25:22;;;;;;;14.25;3.58;;;-3275.40;95.00;;;;;;4988712;28;20022;-69
2021/04/06 02:27:48;;;;;;;14.68;3.58;;;-3275.50;94.90;;;;;;4984142;28;20043;-69
2021/04/06 02:30:14;;;;;;;13.02;3.33;;;-3275.60;94.80;;;;;;4986655;28;20040;-69
2021/04/06 02:32:40;;;;;;;9.02;3.17;;;-3275.70;94.60;;;;;;4990529;28;20034;-69
2021/04/06 02:35:10;;;;;;;12.15;3.03;;;-3275.80;94.40;;;;;;4989740;28;20026;-69
2021/04/06 02:37:40;;;;;;;8.13;3.03;;;-3275.90;94.20;;;;;;4982412;28;20030;-69
2021/04/06 02:40:09;;;;;;;14.05;3.45;;;-3276.00;94.00;;;;;;4987967;28;20618;-69
2021/04/06 02:42:37;;;;;;;7.43;2.90;;;-3276.00;93.90;;;;;;4988793;28;20105;-69
2021/04/06 02:45:13;;;;;;;8.07;3.13;;;-3276.10;93.70;;;;;;4982212;28;20038;-69
2021/04/06 02:47:47;;;;;;;10.63;2.83;;;-3276.10;93.70;;;;;;4985747;28;20030;-69
2021/04/06 02:50:15;;;;;;;10.85;3.00;;;-3276.20;93.60;;;;;;4990019;28;20065;-69
2021/04/06 02:52:42;;;;;;;8.77;2.95;;;-3276.30;93.40;;;;;;4979686;28;20034;-69
2021/04/06 02:55:10;;;;;;;9.35;2.75;;;-3276.30;93.30;;;;;;4975009;28;20396;-69
2021/04/06 02:57:44;;;;;;;8.27;3.25;;;-3276.40;93.10;;;;;;4984327;28;20502;-68
2021/04/06 03:00:29;;;;;;;7.65;2.33;;;-3276.40;92.80;;;;;;4988630;28;20553;-69
2021/04/06 03:03:17;;;;;;;6.90;2.53;;;-3276.50;92.80;;;;;;4989331;28;20120;-69
2021/04/06 03:05:43;;;;;;;9.70;2.10;;;-3276.50;92.50;;;;;;4987790;28;20371;-69
2021/04/06 03:08:09;;;;;;;5.57;2.30;;;-3276.60;92.50;;;;;;4985912;28;20081;-71
2021/04/06 03:10:36;;;;;;;8.57;3.00;;;-3276.60;92.30;;;;;;4981412;28;20034;-69
2021/04/06 03:13:11;;;;;;;6.95;2.83;;;-3276.60;92.30;;;;;;4978979;28;20038;-70
2021/04/06 03:15:41;;;;;;;6.63;2.55;;;-3276.60;92.40;;;;;;4986840;28;20057;-68
2021/04/06 03:18:11;;;;;;;7.95;2.55;;;-3276.60;92.80;;;;;;4988501;28;20117;-69
2021/04/06 03:20:39;;;;;;;7.30;2.08;;;-3276.50;93.60;;;;;;4988302;28;20022;-69
2021/04/06 03:23:06;;;;;;;9.52;2.17;;;-3276.50;94.30;;;;;;4990489;28;20392;-69
2021/04/06 03:25:35;;;;;;;8.00;2.28;;;-3276.50;94.60;;;;;;4986736;28;20033;-69
2021/04/06 03:28:11;;;;;;;6.20;2.47;;;-3276.40;94.80;;;;;;4978554;28;20065;-69
2021/04/06 03:30:38;;;;;;;7.75;2.35;;;-3276.50;94.80;;;;;;4987956;28;20069;-69
2021/04/06 03:33:09;;;;;;;8.93;2.50;;;-3276.50;94.80;;;;;;4988474;28;20026;-69
2021/04/06 03:35:36;;;;;;;7.38;1.90;;;-3276.50;94.70;;;;;;4985338;28;20039;-69
2021/04/06 03:38:08;;;;;;;9.68;2.45;;;-3276.50;94.70;;;;;;4981961;28;20090;-69
2021/04/06 03:40:36;;;;;;;12.68;2.20;;;-3276.60;94.50;;;;;;4975880;28;20110;-69
2021/04/06 03:43:19;;;;;;;10.27;2.50;;;-3276.60;94.40;;;;;;4972993;28;20023;-71
2021/04/06 03:45:56;;;;;;;9.90;2.28;;;-3276.60;94.30;;;;;;4984042;28;20026;-69
2021/04/06 03:48:23;;;;;;;10.18;2.10;;;-3276.60;94.30;;;;;;4982218;28;20041;-69
2021/04/06 03:50:49;;;;;;;8.65;2.38;;;-3276.60;94.20;;;;;;4982756;28;20101;-69
2021/04/06 03:53:14;;;;;;;10.75;2.70;;;-3276.60;94.30;;;;;;4987760;28;20053;-69
2021/04/06 03:55:41;;;;;;;11.35;2.78;;;-3276.60;94.30;;;;;;4985769;28;20281;-68
2021/04/06 03:58:23;;;;;;;9.60;2.47;;;-3276.60;94.40;;;;;;4985028;28;20034;-69
2021/04/06 04:00:48;;;;;;;8.80;2.60;;;-3276.50;94.50;;;;;;4980732;28;20031;-70
2021/04/06 04:03:15;;;;;;;9.88;2.33;;;-3276.50;94.70;;;;;;4989041;28;20035;-70
2021/04/06 04:05:41;;;;;;;10.00;2.88;;;-3276.40;94.80;;;;;;4989406;28;20085;-69
2021/04/06 04:08:07;;;;;;;12.15;2.80;;;-3276.40;94.90;;;;;;4985271;28;20030;-69
2021/04/06 04:10:33;;;;;;;9.18;3.35;;;-3276.40;95.00;;;;;;4988440;28;20521;-69
2021/04/06 04:12:58;;;;;;;8.13;3.00;;;-3276.40;95.00;;;;;;4988464;28;20895;-69
2021/04/06 04:15:24;;;;;;;11.75;2.83;;;-3276.40;95.00;;;;;;4987091;28;20041;-69
2021/04/06 04:17:51;;;;;;;9.93;2.42;;;-3276.40;95.10;;;;;;4980939;28;20033;-69
2021/04/06 04:20:19;;;;;;;9.20;2.72;;;-3276.40;95.10;;;;;;4986940;28;20057;-69
2021/04/06 04:22:46;;;;;;;7.40;2.20;;;-3276.40;95.10;;;;;;4986867;28;20133;-68
2021/04/06 04:25:14;;;;;;;10.43;2.83;;;-3276.40;95.10;;;;;;4985459;28;20022;-69
2021/04/06 04:27:40;;;;;;;11.88;2.80;;;-3276.50;95.00;;;;;;4985562;28;20049;-68
2021/04/06 04:30:07;;;;;;;13.27;2.97;;;-3276.60;94.90;;;;;;4987156;28;20044;-68
2021/04/06 04:32:32;;;;;;;9.20;2.30;;;-3276.70;94.50;;;;;;4988336;28;20474;-69
2021/04/06 04:34:58;;;;;;;13.55;2.80;;;0.00;93.90;;;;;;4977727;28;20030;-69
2021/04/06 04:37:24;;;;;;;15.57;2.65;;;0.00;93.40;;;;;;4987046;28;20061;-68
2021/04/06 04:39:49;;;;;;;14.60;2.92;;;0.00;93.40;;;;;;4984850;28;20251;-67
2021/04/06 04:42:15;;;;;;;10.25;3.15;;;0.00;93.40;;;;;;4986419;28;20427;-69
2021/04/06 04:44:41;;;;;;;13.82;2.78;;;0.10;93.50;;;;;;4982731;28;20097;-68
2021/04/06 04:47:06;;;;;;;11.35;2.67;;;0.10;93.40;;;;;;4986204;28;20042;-68
2021/04/06 04:49:32;;;;;;;10.68;3.28;;;0.00;93.50;;;;;;4970996;28;20058;-67
2021/04/06 04:51:57;;;;;;;10.45;3.42;;;0.00;93.80;;;;;;4986292;28;20415;-68
2021/04/06 04:54:23;;;;;;;14.10;3.45;;;0.00;93.90;;;;;;4986883;28;20096;-68
2021/04/06 04:56:49;;;;;;;12.77;2.55;;;-3276.70;94.00;;;;;;4984443;28;20089;-69
2021/04/06 04:59:14;;;;;;;10.05;3.03;;;-3276.70;94.10;;;;;;4985512;28;20176;-68
2021/04/06 05:01:40;;;;;;;9.32;3.15;;;-3276.70;94.10;;;;;;4980951;28;20026;-68
2021/04/06 05:04:06;;;;;;;11.40;2.30;;;-3276.60;94.10;;;;;;4986363;28;20109;-69
2021/04/06 05:06:31;;;;;;;10.88;3.13;;;-3276.60;94.10;;;;;;4987297;28;20053;-68
2021/04/06 05:08:57;;;;;;;11.45;2.53;;;-3276.60;94.00;;;;;;4982709;28;20026;-67
2021/04/06 05:11:23;;;;;;;11.40;2.83;;;-3276.60;94.10;;;;;;4986309;28;20033;-68
2021/04/06 05:13:50;;;;;;;9.82;2.55;;;-3276.50;94.00;;;;;;4978967;28;20019;-69
2021/04/06 05:16:16;;;;;;;15.93;3.05;;;-3276.60;94.10;;;;;;4985697;28;20526;-69
2021/04/06 05:18:42;;;;;;;10.43;2.30;;;-3276.50;94.10;;;;;;4987085;28;20114;-68
2021/04/06 05:21:08;;;;;;;11.80;2.33;;;-3276.50;94.20;;;;;;4971068;28;20286;-68
2021/04/06 05:23:33;;;;;;;7.55;2.72;;;-3276.50;94.20;;;;;;4986999;28;20121;-69
2021/04/06 05:25:59;;;;;;;10.73;3.10;;;-3276.50;94.30;;;;;;4982182;28;20258;-69
2021/04/06 05:28:25;;;;;;;12.75;3.00;;;-3276.50;94.40;;;;;;4986207;28;20031;-69
2021/04/06 05:30:50;;;;;;;18.20;3.13;;;-3276.40;94.30;;;;;;4983294;28;20509;-68
2021/04/06 05:33:16;;;;;;;11.10;3.13;;;-3276.40;94.40;;;;;;4982202;28;20023;-69
2021/04/06 05:35:41;;;;;;;17.38;2.67;;;-3276.40;94.30;;;;;;4986399;28;20035;-68
2021/04/06 05:38:07;;;;;;;12.30;3.47;;;-3276.40;94.30;;;;;;4984405;28;20421;-69
2021/04/06 05:40:33;;;;;;;15.07;3.13;;;-3276.40;94.30;;;;;;4983726;28;20110;-68
2021/04/06 05:43:02;;;;;;;10.02;2.67;;;-3276.50;94.20;;;;;;4980258;28;20034;-69
2021/04/06 05:45:29;;;;;;;15.48;2.88;;;-3276.50;94.20;;;;;;4981198;28;20065;-68
2021/04/06 05:47:57;;;;;;;15.52;3.33;;;-3276.60;94.10;;;;;;4975804;28;20640;-68
2021/04/06 05:50:22;;;;;;;16.15;3.20;;;-3276.70;93.90;;;;;;4984038;28;20109;-68
2021/04/06 05:52:48;;;;;;;14.10;2.30;;;-3276.70;93.60;;;;;;4990268;28;20117;-68
2021/04/06 05:55:14;;;;;;;20.17;3.20;;;0.00;93.30;;;;;;4988374;28;20062;-69
2021/04/06 05:57:40;;;;;;;12.82;2.88;;;0.00;92.90;;;;;;4987572;28;20044;-67
2021/04/06 06:00:08;;;;;;;16.75;3.15;;;0.10;92.80;;;;;;4983237;28;20034;-69
2021/04/06 06:02:36;;;;;;;10.93;2.80;;;0.10;92.50;;;;;;4986843;28;20054;-68
2021/04/06 06:05:03;;;;;;;9.50;2.53;;;0.20;92.00;;;;;;4978308;28;20458;-67
2021/04/06 06:07:28;;;;;;;11.98;2.70;;;0.30;91.70;;;;;;4990260;28;20070;-67
2021/04/06 06:09:54;;;;;;;13.98;2.85;;;0.30;91.50;;;;;;4989890;28;20060;-67
2021/04/06 06:12:20;;;;;;;10.00;2.42;;;0.40;91.20;;;;;;4989972;28;20029;-68
2021/04/06 06:14:49;;;;;;;13.60;2.83;;;0.50;90.80;;;;;;4988311;28;20089;-69
2021/04/06 06:17:21;;;;;;;14.52;3.10;;;0.60;90.80;;;;;;4983392;28;20270;-68
2021/04/06 06:19:54;;;;;;;10.25;2.22;;;0.60;90.80;;;;;;4982542;28;20456;-68
2021/04/06 06:22:28;;;;;;;15.40;2.13;;;0.70;90.60;;;;;;4989742;28;20026;-69
2021/04/06 06:25:09;;;;;;;13.95;2.67;;;0.70;90.40;;;;;;4984938;28;20030;-68
2021/04/06 06:27:43;;;;;;;14.80;2.40;;;0.80;90.30;;;;;;4984702;28;20038;-68
2021/04/06 06:30:31;;;;;;;8.15;1.80;;;0.90;90.20;;;;;;4983769;28;20045;-68
2021/04/06 06:33:17;;;;;;;11.70;1.98;;;0.90;89.40;;;;;;4989706;28;20038;-68
2021/04/06 06:35:48;;;;;;;15.90;2.90;;;1.00;89.10;;;;;;5001920;28;20046;-68
2021/04/06 06:38:38;;;;;;;22.23;3.10;;;1.10;88.90;;;;;;4989248;28;20403;-69
2021/04/06 06:41:17;;;;;;;14.40;3.08;;;1.30;88.20;;;;;;4983074;28;20546;-68
2021/04/06 06:43:52;;;;;;;15.15;2.10;;;1.50;87.80;;;;;;4990386;28;20494;-69
2021/04/06 06:46:17;;;;;;;10.00;1.95;;;1.50;87.60;;;;;;4987345;28;20021;-69
2021/04/06 06:48:55;;;;;;;16.65;2.13;;;1.30;87.60;;;;;;4986379;28;20038;-69
2021/04/06 06:51:28;;;;;;;10.98;2.55;;;1.10;87.80;;;;;;4982613;28;20064;-68
2021/04/06 06:53:54;;;;;;;8.85;1.88;;;1.00;88.40;;;;;;4987991;28;20740;-68
2021/04/06 06:56:31;;;;;;;9.90;2.58;;;1.10;88.60;;;;;;4986869;28;20113;-68
2021/04/06 06:58:57;;;;;;;10.85;2.33;;;1.20;88.20;;;;;;4984350;28;20030;-68
2021/04/06 07:01:26;;;;;;;11.95;2.83;;;1.30;88.30;;;;;;4982660;28;20499;-69
2021/04/06 07:04:06;;;;;;;13.30;2.95;;;1.40;87.80;;;;;;4985310;28;20030;-69
2021/04/06 07:06:33;;;;;;;9.35;2.50;;;1.60;87.50;;;;;;4985795;28;20022;-68
2021/04/06 07:08:58;;;;;;;9.48;2.60;;;1.50;87.20;;;;;;4989025;28;20373;-68
2021/04/06 07:11:25;;;;;;;13.73;2.50;;;1.60;87.10;;;;;;4987040;28;20121;-68
2021/04/06 07:13:52;;;;;;;10.82;2.33;;;1.60;86.40;;;;;;4989392;28;20037;-69
2021/04/06 07:16:19;;;;;;;15.80;2.72;;;1.80;86.50;;;;;;4987656;28;20026;-68
2021/04/06 07:18:48;;;;;;;9.02;2.15;;;1.80;86.20;;;;;;4985478;28;20033;-69
2021/04/06 07:21:20;;;;;;;14.32;2.83;;;1.80;86.00;;;;;;4981763;28;20026;-68
2021/04/06 07:23:52;;;;;;;8.60;2.00;;;2.00;85.40;;;;;;4987170;28;20029;-68
2021/04/06 07:26:19;;;;;;;13.40;2.25;;;2.10;84.10;;;;;;4997739;28;20034;-68
2021/04/06 07:28:45;;;;;;;6.72;2.42;;;2.10;83.60;;;;;;4988769;28;20101;-68
2021/04/06 07:31:12;;;;;;;12.30;1.92;;;2.10;83.30;;;;;;4988891;28;20551;-68
2021/04/06 07:33:42;;;;;;;11.07;1.90;;;2.30;83.00;;;;;;4987572;28;20023;-68
2021/04/06 07:36:10;;;;;;;8.77;2.13;;;2.70;82.50;;;;;;4988329;28;20026;-68
2021/04/06 07:38:38;;;;;;;10.45;2.03;;;2.40;81.60;;;;;;4985841;28;20035;-68
2021/04/06 07:41:04;;;;;;;10.27;1.80;;;2.40;81.70;;;;;;4987338;28;20072;-68
2021/04/06 07:43:30;;;;;;;8.20;1.83;;;2.60;81.10;;;;;;4987324;28;20054;-69
2021/04/06 07:45:56;;;;;;;13.82;2.20;;;2.70;80.40;;;;;;4983898;28;20022;-69
2021/04/06 07:48:44;;;;;;;9.48;2.05;;;3.00;80.20;;;;;;4985711;28;20034;-69
2021/04/06 07:51:19;;;;;;;6.22;1.88;;;3.20;80.40;;;;;;4985609;28;20026;-69
2021/04/06 07:54:03;;;;;;;7.13;1.83;;;2.90;79.50;;;;;;4987185;28;20030;-69
2021/04/06 07:56:58;;;;;;;9.82;1.90;;;2.80;80.90;;;;;;4984458;28;20097;-68
2021/04/06 07:59:23;;;;;;;12.70;2.03;;;2.50;81.30;;;;;;4981575;28;20137;-69
2021/04/06 08:01:55;;;;;;;12.77;1.90;;;2.30;83.20;;;;;;4986097;28;20097;-69
2021/04/06 08:04:21;;;;;;;10.32;1.70;;;2.20;84.10;;;;;;4987467;28;20034;-69
2021/04/06 08:06:54;;;;;;;7.18;1.88;;;1.90;86.50;;;;;;4986411;28;20283;-68
2021/04/06 08:09:44;;;;;;;9.57;2.40;;;1.30;88.90;;;;;;4986912;28;20557;-69
2021/04/06 08:12:22;;;;;;;10.38;2.30;;;1.20;90.80;;;;;;4983661;28;20029;-67
2021/04/06 08:14:49;;;;;;;10.85;2.70;;;1.10;91.20;;;;;;4974583;28;20073;-67
2021/04/06 08:17:26;;;;;;;7.75;2.13;;;1.60;91.00;;;;;;4981881;28;20054;-67
2021/04/06 08:20:14;;;;;;;8.13;1.90;;;1.80;90.50;;;;;;4983673;28;20023;-67
2021/04/06 08:22:43;;;;;;;8.70;1.75;;;1.80;88.80;;;;;;4984839;28;20022;-67
2021/04/06 08:25:21;;;;;;;5.47;1.80;;;2.10;88.00;;;;;;4981858;28;20034;-67
2021/04/06 08:27:55;;;;;;;8.57;2.08;;;2.10;87.40;;;;;;4982439;28;20030;-66
2021/04/06 08:30:27;;;;;;;8.05;1.90;;;2.50;87.10;;;;;;4983184;28;20030;-68
2021/04/06 08:32:59;;;;;;;7.53;2.50;;;2.70;86.90;;;;;;4982735;28;20467;-67
2021/04/06 08:35:49;;;;;;;7.25;2.45;;;2.80;86.00;;;;;;4982918;28;20041;-68
2021/04/06 08:38:20;;;;;;;13.40;2.40;;;2.80;85.00;;;;;;4979845;28;20038;-67
2021/04/06 08:41:01;;;;;;;7.13;1.75;;;3.10;84.50;;;;;;4983080;28;20073;-67
2021/04/06 08:43:32;;;;;;;6.70;1.40;;;3.30;83.10;;;;;;4979336;28;20027;-67
2021/04/06 08:46:03;;;;;;;6.85;1.80;;;3.20;82.20;;;;;;4981158;28;20030;-68
2021/04/06 08:48:48;;;;;;;;;;;3.10;82.20;;;;;;4983954;28;20039;-68
2021/04/06 08:51:27;;;;;;;8.18;2.00;;;3.00;81.50;;;;;;4985437;28;20370;-68
2021/04/06 08:54:07;;;;;;;7.72;1.70;;;3.40;82.10;;;;;;4978959;28;20101;-68
2021/04/06 08:56:46;;;;;;;7.68;1.70;;;3.10;80.30;;;;;;4976052;28;20034;-68
2021/04/06 08:59:35;;;;;;;7.88;1.58;;;3.10;81.80;;;;;;4982442;28;20041;-67
2021/04/06 09:02:14;;;;;;;4.82;1.70;;;3.10;82.80;;;;;;4978356;28;20053;-68
2021/04/06 09:04:45;;;;;;;9.88;1.80;;;2.90;82.20;;;;;;4985560;28;20030;-68
2021/04/06 09:07:25;;;;;;;6.47;1.10;;;2.90;81.50;;;;;;4983091;28;20026;-67
2021/04/06 09:09:59;;;;;;;5.38;1.27;;;3.40;78.70;;;;;;4986630;28;20564;-68
2021/04/06 09:12:32;;;;;;;3.83;1.20;;;3.30;79.40;;;;;;4983629;28;20060;-68
2021/04/06 09:14:58;;;;;;;7.38;1.48;;;2.70;83.30;;;;;;4983630;28;20375;-68
2021/04/06 09:17:33;;;;;;;3.55;1.02;;;2.10;88.10;;;;;;4980007;28;20038;-67
2021/04/06 09:20:06;;;;;;;2.03;0.80;;;1.60;89.70;;;;;;4982824;28;20755;-67
2021/04/06 09:22:32;;;;;;;2.35;0.82;;;1.30;89.20;;;;;;4979742;28;20048;-67
2021/04/06 09:24:57;;;;;;;3.38;0.80;;;1.20;90.50;;;;;;4983707;28;20069;-67
2021/04/06 09:27:23;;;;;;;5.43;1.27;;;0.90;91.40;;;;;;4980887;28;20069;-67
2021/04/06 09:29:50;;;;;;;4.93;1.30;;;0.80;92.30;;;;;;4983440;28;20106;-67
2021/04/06 09:32:19;;;;;;;5.65;1.30;;;0.60;92.60;;;;;;4983301;28;23328;-66
2021/04/06 09:34:50;;;;;;;7.25;1.13;;;0.50;93.10;;;;;;4981622;28;20042;-68
2021/04/06 09:37:27;;;;;;;6.35;1.20;;;0.50;93.60;;;;;;4979238;28;20505;-68
2021/04/06 09:39:54;;;;;;;3.75;1.48;;;0.40;93.90;;;;;;4981133;28;20169;-67
2021/04/06 09:42:21;;;;;;;6.13;1.40;;;0.60;94.10;;;;;;4978411;28;20038;-68
2021/04/06 09:44:49;;;;;;;10.32;1.98;;;0.80;94.00;;;;;;4981724;28;20038;-67
2021/04/06 09:47:21;;;;;;;7.32;2.03;;;0.90;93.60;;;;;;4978633;28;20161;-68
2021/04/06 09:49:53;;;;;;;5.20;1.88;;;1.10;93.50;;;;;;4981776;28;20419;-67
2021/04/06 09:52:21;;;;;;;9.43;1.88;;;1.20;93.10;;;;;;4980267;28;20121;-66
2021/04/06 09:54:50;;;;;;;14.32;3.28;;;1.50;92.90;;;;;;4985497;28;20434;-67
2021/04/06 09:57:16;;;;;;;14.95;2.33;;;1.70;91.40;;;;;;4980163;28;20442;-66
2021/04/06 09:59:51;;;;;;;8.88;2.15;;;2.30;91.00;;;;;;4983266;28;20034;-67
2021/04/06 10:02:28;;;;;;;8.50;1.95;;;2.50;89.80;;;;;;4984935;28;20510;-68
2021/04/06 10:04:54;;;;;;;8.68;2.03;;;2.30;88.90;;;;;;4986338;28;20046;-67
2021/04/06 10:07:28;;;;;;;7.03;1.63;;;2.80;90.60;;;;;;4980726;28;20080;-67
2021/04/06 10:09:56;;;;;;;5.72;1.90;;;3.00;88.80;;;;;;4981583;28;20053;-67
2021/04/06 10:12:24;;;;;;;21.52;3.85;;;3.30;88.40;;;;;;4978855;28;20034;-68
2021/04/06 10:14:51;;;;;;;5.45;2.00;;;3.80;89.30;;;;;;4975962;28;20515;-67
2021/04/06 10:17:17;;;;;;;7.10;2.05;;;3.90;87.20;;;;;;4983942;28;20394;-67
2021/04/06 10:20:11;;;;;;;16.92;2.55;;;4.10;87.00;;;;;;4984906;28;20105;-67
2021/04/06 10:22:42;;;;;;;9.48;2.55;;;4.30;86.90;;;;;;4984987;28;20027;-67
2021/04/06 10:25:10;;;;;;;6.63;2.05;;;3.80;84.80;;;;;;4982781;28;20018;-68
2021/04/06 10:27:39;;;;;;;7.18;1.73;;;3.80;85.40;;;;;;4980801;28;20546;-67
2021/04/06 10:30:12;;;;;;;5.38;1.20;;;4.20;84.30;;;;;;4977562;28;20387;-68
2021/04/06 10:32:40;;;;;;;4.18;1.30;;;4.20;83.70;;;;;;4977140;28;20053;-68
2021/04/06 10:35:13;;;;;;;3.47;1.17;;;4.60;83.20;;;;;;4982713;28;20058;-68
2021/04/06 10:37:48;;;;;;;6.97;1.15;;;4.20;78.90;;;;;;4985832;28;20030;-67
2021/04/06 10:40:23;;;;;;;5.47;1.20;;;4.20;80.30;;;;;;4976200;28;20065;-68
2021/04/06 10:42:51;;;;;;;5.63;1.50;;;3.70;81.80;;;;;;4986251;28;20394;-68
2021/04/06 10:45:19;;;;;;;8.48;1.10;;;3.30;84.60;;;;;;4980265;28;20027;-68
2021/04/06 10:47:45;;;;;;;2.65;0.90;;;2.00;88.00;;;;;;4983159;28;20121;-69
2021/04/06 10:50:12;;;;;;;3.90;1.15;;;1.20;91.50;;;;;;4982042;28;20248;-69
2021/04/06 10:52:38;;;;;;;5.97;1.33;;;1.00;93.20;;;;;;4979745;28;20033;-67
2021/04/06 10:55:06;;;;;;;1.67;0.75;;;0.90;93.90;;;;;;4986719;28;20141;-68
2021/04/06 10:57:36;;;;;;;2.05;0.90;;;0.70;93.90;;;;;;4982666;28;20096;-68
2021/04/06 11:00:22;;;;;;;2.40;1.00;;;0.60;94.50;;;;;;4985057;28;20032;-67
2021/04/06 11:02:49;;;;;;;5.00;1.38;;;0.60;94.10;;;;;;4986808;28;20371;-68
2021/04/06 11:05:29;;;;;;;2.65;1.10;;;0.70;93.60;;;;;;4980269;28;20035;-69
2021/04/06 11:07:55;;;;;;;6.53;1.02;;;0.80;93.00;;;;;;4985831;28;20030;-69
2021/04/06 11:10:24;;;;;;;4.80;1.00;;;1.00;92.40;;;;;;4981475;28;20040;-69
2021/04/06 11:12:50;;;;;;;3.95;0.98;;;1.00;91.50;;;;;;4987849;28;20026;-68
2021/04/06 11:15:16;;;;;;;6.53;1.20;;;1.10;91.20;;;;;;4984572;28;20046;-68
2021/04/06 11:17:43;;;;;;;4.38;1.20;;;1.50;89.90;;;;;;4985624;28;20030;-68
2021/04/06 11:20:09;;;;;;;5.25;1.30;;;2.10;89.30;;;;;;4984021;28;20276;-71
2021/04/06 11:22:35;;;;;;;5.88;1.50;;;2.60;88.20;;;;;;4984287;28;20034;-69
2021/04/06 11:25:01;;;;;;;5.30;1.67;;;2.90;86.70;;;;;;4981790;28;20743;-68
2021/04/06 11:27:26;;;;;;;3.08;1.38;;;3.40;86.70;;;;;;4980979;28;20034;-68
2021/04/06 11:29:54;;;;;;;5.43;1.00;;;3.60;85.30;;;;;;4985167;28;20061;-69
2021/04/06 11:32:21;;;;;;;7.70;1.60;;;4.00;84.90;;;;;;4980656;28;20614;-68
2021/04/06 11:34:47;;;;;;;4.18;1.10;;;4.40;84.80;;;;;;4989012;28;20050;-68
2021/04/06 11:37:14;;;;;;;5.95;1.10;;;5.00;83.70;;;;;;4984796;28;20336;-69
2021/04/06 11:39:45;;;;;;;4.43;1.10;;;4.90;75.60;;;;;;4983622;28;20045;-71
2021/04/06 11:42:12;;;;;;;3.78;1.02;;;5.10;77.70;;;;;;4981908;28;20026;-69
2021/04/06 11:44:38;;;;;;;8.77;1.40;;;5.10;75.00;;;;;;4988671;28;20030;-69
2021/04/06 11:47:04;;;;;;;5.97;1.48;;;5.50;75.30;;;;;;4983608;28;20038;-71
2021/04/06 11:49:30;;;;;;;5.40;1.40;;;5.10;76.90;;;;;;4982423;28;20523;-68
2021/04/06 11:51:56;;;;;;;4.82;1.25;;;4.90;74.90;;;;;;4984371;28;20491;-68
2021/04/06 11:54:23;;;;;;;2.60;0.90;;;5.10;75.70;;;;;;4983193;28;20050;-71
2021/04/06 11:56:50;;;;;;;3.88;1.20;;;4.70;75.50;;;;;;4975616;28;20104;-68
2021/04/06 11:59:16;;;;;;;3.72;1.00;;;4.80;77.40;;;;;;4979165;28;20106;-71
2021/04/06 12:01:43;;;;;;;4.05;0.90;;;5.20;78.80;;;;;;4968492;28;20509;-69
2021/04/06 12:04:09;;;;;;;3.40;1.10;;;5.10;75.10;;;;;;4975137;28;20038;-68
2021/04/06 12:06:35;;;;;;;7.45;1.67;;;4.60;77.90;;;;;;4981395;28;20379;-68
2021/04/06 12:09:01;;;;;;;6.13;1.40;;;4.40;81.20;;;;;;4985405;28;20071;-69
2021/04/06 12:11:27;;;;;;;4.65;1.13;;;4.80;81.90;;;;;;4982524;28;20044;-71
2021/04/06 12:13:53;;;;;;;7.97;1.65;;;4.70;81.70;;;;;;4981275;28;20106;-70
2021/04/06 12:16:19;;;;;;;5.45;1.20;;;4.50;80.20;;;;;;4979548;28;20033;-68
2021/04/06 12:18:45;;;;;;;6.93;2.05;;;5.00;80.10;;;;;;4977944;28;20386;-69
2021/04/06 12:21:11;;;;;;;4.55;1.48;;;4.50;81.80;;;;;;4980894;28;20126;-69
2021/04/06 12:23:37;;;;;;;3.40;1.10;;;4.20;81.90;;;;;;4984533;28;20115;-68
2021/04/06 12:26:03;;;;;;;4.35;1.40;;;3.10;84.50;;;;;;4983536;28;20026;-70
2021/04/06 12:28:29;;;;;;;4.72;1.52;;;2.60;88.30;;;;;;4983108;28;20483;-70
2021/04/06 12:30:55;;;;;;;4.88;1.20;;;2.50;90.40;;;;;;4978468;28;20042;-68
2021/04/06 12:33:20;;;;;;;6.90;1.52;;;2.20;90.20;;;;;;4985790;28;20034;-68
2021/04/06 12:35:46;;;;;;;7.03;1.30;;;2.40;91.20;;;;;;4983751;28;20061;-68
2021/04/06 12:38:12;;;;;;;6.70;1.55;;;2.40;90.40;;;;;;4976652;28;20023;-69
2021/04/06 12:40:37;;;;;;;11.02;1.75;;;2.30;90.00;;;;;;4986206;28;20037;-68
2021/04/06 12:43:03;;;;;;;4.47;1.50;;;2.30;89.00;;;;;;4985645;28;20067;-69
2021/04/06 12:45:29;;;;;;;5.88;1.60;;;2.60;88.60;;;;;;4983792;28;20026;-70
2021/04/06 12:47:54;;;;;;;6.20;1.55;;;3.30;88.00;;;;;;4981558;28;20042;-67
2021/04/06 12:50:22;;;;;;;5.35;1.33;;;4.10;85.70;;;;;;4985141;28;20082;-68